Time;durP1;ratioP1;P1;durP2;ratioP2;P2;SDS_P1;SDS_P2;PMS_P1;PMS_P2;Temp;Humidity;BMP_temperature;BMP_pressure;BME280_temperature;BME280_humidity;BME280_pressure;Samples;Min_cycle;Max_cycle;Signal;HPM_P1;HPM_P2
2022/04/02 00:00:28;;;;;;;;;;;;;;;;;;5034689;28;20283;-51
2022/04/02 00:02:54;;;;;;;;;;;;;;;;;;5034514;28;19924;-52
2022/04/02 00:05:20;;;;;;;;;;;;;;;;;;5034564;28;19905;-50
2022/04/02 00:07:46;;;;;;;;;;;;;;;;;;5034493;28;19905;-53
2022/04/02 00:10:12;;;;;;;;;;;;;;;;;;5034516;28;19920;-51
2022/04/02 00:12:38;;;;;;;;;;;;;;;;;;5034264;28;20019;-50
2022/04/02 00:15:04;;;;;;;;;;;;;;;;;;5034366;28;19905;-53
2022/04/02 00:17:29;;;;;;;;;;;;;;;;;;5034657;28;20007;-46
2022/04/02 00:19:55;;;;;;;;;;;;;;;;;;5034288;28;20278;-45
2022/04/02 00:22:21;;;;;;;;;;;;;;;;;;5034225;28;19909;-46
2022/04/02 00:24:47;;;;;;;;;;;;;;;;;;5034155;28;19905;-45
2022/04/02 00:27:13;;;;;;;;;;;;;;;;;;5034107;28;19905;-46
2022/04/02 00:29:41;;;;;;;;;;;;;;;;;;5034020;28;20454;-45
2022/04/02 00:32:07;;;;;;;;;;;;;;;;;;5033999;28;19913;-48
2022/04/02 00:34:32;;;;;;;;;;;;;;;;;;5033643;28;20367;-51
2022/04/02 00:36:58;;;;;;;;;;;;;;;;;;5034205;28;19905;-46
2022/04/02 00:39:24;;;;;;;;;;;;;;;;;;5033858;28;19955;-46
2022/04/02 00:41:50;;;;;;;;;;;;;;;;;;5034099;28;19905;-45
2022/04/02 00:44:20;;;;;;;;;;;;;;;;;;5033780;28;19952;-45
2022/04/02 00:46:47;;;;;;;;;;;;;;;;;;5033807;28;19905;-45
2022/04/02 00:49:13;;;;;;;;;;;;;;;;;;5033942;28;20004;-46
2022/04/02 00:51:42;;;;;;;;;;;;;;;;;;5033792;28;20016;-52
2022/04/02 00:54:09;;;;;;;;;;;;;;;;;;5033951;28;19905;-51
2022/04/02 00:56:34;;;;;;;;;;;;;;;;;;5033828;28;19905;-52
2022/04/02 00:59:00;;;;;;;;;;;;;;;;;;5033445;28;19958;-52
2022/04/02 01:01:26;;;;;;;;;;;;;;;;;;5033371;28;19905;-51
2022/04/02 01:03:52;;;;;;;;;;;;;;;;;;5033181;28;20442;-51
2022/04/02 01:06:18;;;;;;;;;;;;;;;;;;5033438;28;19905;-51
2022/04/02 01:08:44;;;;;;;;;;;;;;;;;;5033290;28;19912;-54
2022/04/02 01:11:10;;;;;;;;;;;;;;;;;;5033291;28;19984;-50
2022/04/02 01:13:35;;;;;;;;;;;;;;;;;;5033509;28;19932;-53
2022/04/02 01:16:02;;;;;;;;;;;;;;;;;;5033192;28;19909;-52
2022/04/02 01:18:27;;;;;;;;;;;;;;;;;;5033453;28;19911;-54
2022/04/02 01:20:53;;;;;;;;;;;;;;;;;;5033111;28;19992;-51
2022/04/02 01:23:19;;;;;;;;;;;;;;;;;;5033405;28;19950;-52
2022/04/02 01:25:45;;;;;;;;;;;;;;;;;;5033308;28;19911;-52
2022/04/02 01:28:11;;;;;;;;;;;;;;;;;;5033036;28;19908;-53
2022/04/02 01:30:38;;;;;;;;;;;;;;;;;;5033046;28;19905;-50
2022/04/02 01:33:03;;;;;;;;;;;;;;;;;;5032915;28;19913;-51
2022/04/02 01:35:29;;;;;;;;;;;;;;;;;;5032937;28;20364;-53
2022/04/02 01:37:55;;;;;;;;;;;;;;;;;;5032845;28;19905;-51
2022/04/02 01:40:21;;;;;;;;;;;;;;;;;;5032844;28;19912;-51
2022/04/02 01:42:47;;;;;;;;;;;;;;;;;;5032790;28;20062;-52
2022/04/02 01:45:13;;;;;;;;;;;;;;;;;;5032854;28;19905;-52
2022/04/02 01:47:39;;;;;;;;;;;;;;;;;;5032083;28;19905;-50
2022/04/02 01:50:05;;;;;;;;;;;;;;;;;;5032750;28;19971;-45
2022/04/02 01:52:31;;;;;;;;;;;;;;;;;;5032585;28;20394;-45
2022/04/02 01:54:56;;;;;;;;;;;;;;;;;;5032657;28;19952;-45
2022/04/02 01:57:22;;;;;;;;;;;;;;;;;;5032633;28;19905;-46
2022/04/02 01:59:49;;;;;;;;;;;;;;;;;;5032562;28;19909;-45
2022/04/02 02:02:15;;;;;;;;;;;;;;;;;;5032457;28;19936;-45
2022/04/02 02:04:41;;;;;;;;;;;;;;;;;;5032891;28;20359;-46
2022/04/02 02:07:07;;;;;;;;;;;;;;;;;;5032549;28;19912;-54
2022/04/02 02:09:33;;;;;;;;;;;;;;;;;;5032600;28;19905;-54
2022/04/02 02:11:59;;;;;;;;;;;;;;;;;;5032463;28;19913;-53
2022/04/02 02:14:26;;;;;;;;;;;;;;;;;;5032813;28;19911;-55
2022/04/02 02:16:51;;;;;;;;;;;;;;;;;;5032759;28;19959;-51
2022/04/02 02:19:17;;;;;;;;;;;;;;;;;;5032459;28;19905;-53
2022/04/02 02:21:43;;;;;;;;;;;;;;;;;;5032369;28;19905;-51
2022/04/02 02:24:09;;;;;;;;;;;;;;;;;;5032415;28;19906;-52
2022/04/02 02:26:35;;;;;;;;;;;;;;;;;;5032453;28;19905;-46
2022/04/02 02:29:01;;;;;;;;;;;;;;;;;;5032608;28;19911;-46
2022/04/02 02:31:28;;;;;;;;;;;;;;;;;;5032286;28;19959;-46
2022/04/02 02:36:38;;;;;;;;;;;;;;;;;;5032366;28;19959;-47
2022/04/02 02:39:04;;;;;;;;;;;;;;;;;;5032252;28;19936;-48
2022/04/02 02:41:30;;;;;;;;;;;;;;;;;;5032270;28;19905;-45
2022/04/02 02:43:56;;;;;;;;;;;;;;;;;;5032558;28;19905;-46
2022/04/02 02:46:22;;;;;;;;;;;;;;;;;;5032460;28;20012;-46
2022/04/02 02:48:48;;;;;;;;;;;;;;;;;;5032164;28;19931;-45
2022/04/02 02:51:14;;;;;;;;;;;;;;;;;;5032093;28;19905;-45
2022/04/02 02:53:39;;;;;;;;;;;;;;;;;;5032126;28;19909;-45
2022/04/02 02:56:05;;;;;;;;;;;;;;;;;;5032029;28;20050;-46
2022/04/02 02:58:31;;;;;;;;;;;;;;;;;;5032390;28;19911;-46
2022/04/02 03:00:57;;;;;;;;;;;;;;;;;;5036014;28;19996;-45
2022/04/02 03:03:23;;;;;;;;;;;;;;;;;;5035455;28;20390;-51
2022/04/02 03:05:49;;;;;;;;;;;;;;;;;;5035743;28;19905;-54
2022/04/02 03:08:18;;;;;;;;;;;;;;;;;;5035533;28;19912;-53
2022/04/02 03:10:47;;;;;;;;;;;;;;;;;;5035570;28;19975;-52
2022/04/02 03:13:13;;;;;;;;;;;;;;;;;;5035383;28;19920;-53
2022/04/02 03:15:39;;;;;;;;;;;;;;;;;;5035531;28;19911;-52
2022/04/02 03:18:05;;;;;;;;;;;;;;;;;;5035362;28;19999;-54
2022/04/02 03:20:31;;;;;;;;;;;;;;;;;;5035701;28;19905;-46
2022/04/02 03:22:57;;;;;;;;;;;;;;;;;;5035654;28;19905;-51
2022/04/02 03:25:23;;;;;;;;;;;;;;;;;;5035313;28;19948;-53
2022/04/02 03:27:49;;;;;;;;;;;;;;;;;;5035297;28;19948;-51
2022/04/02 03:30:15;;;;;;;;;;;;;;;;;;5035260;28;19966;-53
2022/04/02 03:32:41;;;;;;;;;;;;;;;;;;5035136;28;20394;-52
2022/04/02 03:35:07;;;;;;;;;;;;;;;;;;5035120;28;20425;-51
2022/04/02 03:37:32;;;;;;;;;;;;;;;;;;5035074;28;19944;-51
2022/04/02 03:39:59;;;;;;;;;;;;;;;;;;5035069;28;19905;-50
2022/04/02 03:42:25;;;;;;;;;;;;;;;;;;5034992;28;19905;-52
2022/04/02 03:44:51;;;;;;;;;;;;;;;;;;5035002;28;19912;-50
2022/04/02 03:47:22;;;;;;;;;;;;;;;;;;5034826;28;19905;-51
2022/04/02 03:49:48;;;;;;;;;;;;;;;;;;5035199;28;19908;-54
2022/04/02 03:52:15;;;;;;;;;;;;;;;;;;5034759;28;19989;-53
2022/04/02 03:54:41;;;;;;;;;;;;;;;;;;5034817;28;19995;-50
2022/04/02 03:57:07;;;;;;;;;;;;;;;;;;5034727;28;19944;-46
2022/04/02 03:59:32;;;;;;;;;;;;;;;;;;5034595;28;20313;-51
2022/04/02 04:01:58;;;;;;;;;;;;;;;;;;5034559;28;19905;-49
2022/04/02 04:04:24;;;;;;;;;;;;;;;;;;5034416;28;19917;-50
2022/04/02 04:06:50;;;;;;;;;;;;;;;;;;5034547;28;19912;-52
2022/04/02 04:09:16;;;;;;;;;;;;;;;;;;5034115;28;19951;-52
2022/04/02 04:11:42;;;;;;;;;;;;;;;;;;5034124;28;19921;-50
2022/04/02 04:14:08;;;;;;;;;;;;;;;;;;5034459;28;19905;-51
2022/04/02 04:16:34;;;;;;;;;;;;;;;;;;5034420;28;19905;-45
2022/04/02 04:19:00;;;;;;;;;;;;;;;;;;5034382;28;19908;-45
2022/04/02 04:21:26;;;;;;;;;;;;;;;;;;5034166;28;19905;-47
2022/04/02 04:23:52;;;;;;;;;;;;;;;;;;5034256;28;19916;-46
2022/04/02 04:26:18;;;;;;;;;;;;;;;;;;5034149;28;19936;-46
2022/04/02 04:28:44;;;;;;;;;;;;;;;;;;5034514;28;19915;-46
2022/04/02 04:31:10;;;;;;;;;;;;;;;;;;5034289;28;19909;-45
2022/04/02 04:33:37;;;;;;;;;;;;;;;;;;5033951;28;19913;-45
2022/04/02 04:36:03;;;;;;;;;;;;;;;;;;5034426;28;20271;-45
2022/04/02 04:38:29;;;;;;;;;;;;;;;;;;5033907;28;19912;-45
2022/04/02 04:40:55;;;;;;;;;;;;;;;;;;5033870;28;19905;-45
2022/04/02 04:43:21;;;;;;;;;;;;;;;;;;5033787;28;20429;-46
2022/04/02 04:45:46;;;;;;;;;;;;;;;;;;5033748;28;19936;-47
2022/04/02 04:48:12;;;;;;;;;;;;;;;;;;5033589;28;19909;-47
2022/04/02 04:50:38;;;;;;;;;;;;;;;;;;5033532;28;19947;-45
2022/04/02 04:53:04;;;;;;;;;;;;;;;;;;5033574;28;19958;-54
2022/04/02 04:55:30;;;;;;;;;;;;;;;;;;5033566;28;19912;-52
2022/04/02 04:57:56;;;;;;;;;;;;;;;;;;5033554;28;19905;-51
2022/04/02 05:00:22;;;;;;;;;;;;;;;;;;5033738;28;19909;-53
2022/04/02 05:02:48;;;;;;;;;;;;;;;;;;5033169;28;19924;-54
2022/04/02 05:05:13;;;;;;;;;;;;;;;;;;5033412;28;19978;-49
2022/04/02 05:07:39;;;;;;;;;;;;;;;;;;5033340;28;20399;-53
2022/04/02 05:10:05;;;;;;;;;;;;;;;;;;5033640;28;19905;-51
2022/04/02 05:12:31;;;;;;;;;;;;;;;;;;5033298;28;19967;-47
2022/04/02 05:14:57;;;;;;;;;;;;;;;;;;5033223;28;19911;-46
2022/04/02 05:17:23;;;;;;;;;;;;;;;;;;5033414;28;19909;-46
2022/04/02 05:19:49;;;;;;;;;;;;;;;;;;5031821;28;19991;-47
2022/04/02 05:22:15;;;;;;;;;;;;;;;;;;5032191;28;19932;-45
2022/04/02 05:24:42;;;;;;;;;;;;;;;;;;5033093;28;20275;-45
2022/04/02 05:27:09;;;;;;;;;;;;;;;;;;5033300;28;20280;-47
2022/04/02 05:29:35;;;;;;;;;;;;;;;;;;5033314;28;19951;-49
2022/04/02 05:32:01;;;;;;;;;;;;;;;;;;5032966;28;19913;-53
2022/04/02 05:34:27;;;;;;;;;;;;;;;;;;5033173;28;19905;-49
2022/04/02 05:36:52;;;;;;;;;;;;;;;;;;5032867;28;19912;-47
2022/04/02 05:39:18;;;;;;;;;;;;;;;;;;5032860;28;19987;-48
2022/04/02 05:41:46;;;;;;;;;;;;;;;;;;5032748;28;19912;-48
2022/04/02 05:44:11;;;;;;;;;;;;;;;;;;5032820;28;19915;-48
2022/04/02 05:46:38;;;;;;;;;;;;;;;;;;5032700;28;19905;-47
2022/04/02 05:49:03;;;;;;;;;;;;;;;;;;5032988;28;19909;-54
2022/04/02 05:51:30;;;;;;;;;;;;;;;;;;5032622;28;19905;-53
2022/04/02 05:53:57;;;;;;;;;;;;;;;;;;5032928;28;19948;-52
2022/04/02 05:56:23;;;;;;;;;;;;;;;;;;5032677;28;19912;-52
2022/04/02 05:58:48;;;;;;;;;;;;;;;;;;5032530;28;19988;-55
2022/04/02 06:01:14;;;;;;;;;;;;;;;;;;5032498;28;20363;-52
2022/04/02 06:03:40;;;;;;;;;;;;;;;;;;5032387;28;19948;-52
2022/04/02 06:06:06;;;;;;;;;;;;;;;;;;5032598;28;19905;-48
2022/04/02 06:08:32;;;;;;;;;;;;;;;;;;5032646;28;19955;-53
2022/04/02 06:10:58;;;;;;;;;;;;;;;;;;5032518;28;19905;-50
2022/04/02 06:13:24;;;;;;;;;;;;;;;;;;5032464;28;19913;-54
2022/04/02 06:15:49;;;;;;;;;;;;;;;;;;5032411;28;19970;-52
2022/04/02 06:18:18;;;;;;;;;;;;;;;;;;5032731;28;20372;-50
2022/04/02 06:20:44;;;;;;;;;;;;;;;;;;5032435;28;19928;-53
2022/04/02 06:23:09;;;;;;;;;;;;;;;;;;5032344;28;19905;-51
2022/04/02 06:25:35;;;;;;;;;;;;;;;;;;5032430;28;19905;-51
2022/04/02 06:28:01;;;;;;;;;;;;;;;;;;5032348;28;20011;-54
2022/04/02 06:30:27;;;;;;;;;;;;;;;;;;5032208;28;19906;-51
2022/04/02 06:32:53;;;;;;;;;;;;;;;;;;5033038;28;19913;-51
2022/04/02 06:35:19;;;;;;;;;;;;;;;;;;5036006;28;19905;-51
2022/04/02 06:37:45;;;;;;;;;;;;;;;;;;5036065;28;19905;-52
2022/04/02 06:40:11;;;;;;;;;;;;;;;;;;5036099;28;20279;-50
2022/04/02 06:42:36;;;;;;;;;;;;;;;;;;5036083;28;19955;-49
2022/04/02 06:45:02;;;;;;;;;;;;;;;;;;5036047;28;20027;-49
2022/04/02 06:47:28;;;;;;;;;;;;;;;;;;5035981;28;19920;-48
2022/04/02 06:49:54;;;;;;;;;;;;;;;;;;5036143;28;19905;-47
2022/04/02 06:52:20;;;;;;;;;;;;;;;;;;5036102;28;19913;-48
2022/04/02 06:54:46;;;;;;;;;;;;;;;;;;5035846;28;19905;-49
2022/04/02 06:57:12;;;;;;;;;;;;;;;;;;5035811;28;20182;-47
2022/04/02 06:59:38;;;;;;;;;;;;;;;;;;5035773;28;20058;-48
2022/04/02 07:02:05;;;;;;;;;;;;;;;;;;5035671;28;19905;-50
2022/04/02 07:04:32;;;;;;;;;;;;;;;;;;5035584;28;19917;-54
2022/04/02 07:06:59;;;;;;;;;;;;;;;;;;5035665;28;19905;-51
2022/04/02 07:09:24;;;;;;;;;;;;;;;;;;5035604;28;19941;-54
2022/04/02 07:11:50;;;;;;;;;;;;;;;;;;5035500;28;19909;-54
2022/04/02 07:14:17;;;;;;;;;;;;;;;;;;5035434;28;19905;-55
2022/04/02 07:16:43;;;;;;;;;;;;;;;;;;5035755;28;19905;-54
2022/04/02 07:19:09;;;;;;;;;;;;;;;;;;5035674;28;20381;-55
2022/04/02 07:21:35;;;;;;;;;;;;;;;;;;5035723;28;19959;-47
2022/04/02 07:24:01;;;;;;;;;;;;;;;;;;5035339;28;20363;-47
2022/04/02 07:26:27;;;;;;;;;;;;;;;;;;5035263;28;20360;-47
2022/04/02 07:28:53;;;;;;;;;;;;;;;;;;5035210;28;19912;-48
2022/04/02 07:31:19;;;;;;;;;;;;;;;;;;5035163;28;20389;-48
2022/04/02 07:33:45;;;;;;;;;;;;;;;;;;5035037;28;19920;-47
2022/04/02 07:36:11;;;;;;;;;;;;;;;;;;5034929;28;19912;-47
2022/04/02 07:38:37;;;;;;;;;;;;;;;;;;5034893;28;19905;-46
2022/04/02 07:41:04;;;;;;;;;;;;;;;;;;5035037;28;19905;-46
2022/04/02 07:43:30;;;;;;;;;;;;;;;;;;5034875;28;19928;-47
2022/04/02 07:45:55;;;;;;;;;;;;;;;;;;5033718;28;19905;-49
2022/04/02 07:48:21;;;;;;;;;;;;;;;;;;5034658;28;19905;-47
2022/04/02 07:50:47;;;;;;;;;;;;;;;;;;5034764;28;20343;-47
2022/04/02 07:53:13;;;;;;;;;;;;;;;;;;5034659;28;19914;-47
2022/04/02 07:55:39;;;;;;;;;;;;;;;;;;5034966;28;20335;-48
2022/04/02 07:58:05;;;;;;;;;;;;;;;;;;5034655;28;19905;-47
2022/04/02 08:00:31;;;;;;;;;;;;;;;;;;5034434;28;19905;-48
2022/04/02 08:02:57;;;;;;;;;;;;;;;;;;5034167;28;19923;-49
2022/04/02 08:05:23;;;;;;;;;;;;;;;;;;5034303;28;19905;-49
2022/04/02 08:07:55;;;;;;;;;;;;;;;;;;5034335;28;19913;-48
2022/04/02 08:10:21;;;;;;;;;;;;;;;;;;5034350;28;20271;-49
2022/04/02 08:12:47;;;;;;;;;;;;;;;;;;5034183;28;19919;-48
2022/04/02 08:15:13;;;;;;;;;;;;;;;;;;5034405;28;19909;-50
2022/04/02 08:17:39;;;;;;;;;;;;;;;;;;5034449;28;20000;-51
2022/04/02 08:20:05;;;;;;;;;;;;;;;;;;5034407;28;20287;-52
2022/04/02 08:22:31;;;;;;;;;;;;;;;;;;5034569;28;19959;-49
2022/04/02 08:24:58;;;;;;;;;;;;;;;;;;5034194;28;19905;-51
2022/04/02 08:27:24;;;;;;;;;;;;;;;;;;5034092;28;19905;-49
2022/04/02 08:29:50;;;;;;;;;;;;;;;;;;5033975;28;20257;-51
2022/04/02 08:32:15;;;;;;;;;;;;;;;;;;5033912;28;19915;-50
2022/04/02 08:34:41;;;;;;;;;;;;;;;;;;5034043;28;19905;-47
2022/04/02 08:37:07;;;;;;;;;;;;;;;;;;5033962;28;19905;-46
2022/04/02 08:39:34;;;;;;;;;;;;;;;;;;5033874;28;20038;-46
2022/04/02 08:42:00;;;;;;;;;;;;;;;;;;5033940;28;20295;-46
2022/04/02 08:44:26;;;;;;;;;;;;;;;;;;5033951;28;19905;-47
2022/04/02 08:46:51;;;;;;;;;;;;;;;;;;5033684;28;19915;-47
2022/04/02 08:49:17;;;;;;;;;;;;;;;;;;5033632;28;19913;-46
2022/04/02 08:51:45;;;;;;;;;;;;;;;;;;5033819;28;20460;-49
2022/04/02 08:54:11;;;;;;;;;;;;;;;;;;5034044;28;19959;-48
2022/04/02 08:56:37;;;;;;;;;;;;;;;;;;5033770;28;19905;-49
2022/04/02 08:59:04;;;;;;;;;;;;;;;;;;5033546;28;19955;-48
2022/04/02 09:01:31;;;;;;;;;;;;;;;;;;5033484;28;20322;-49
2022/04/02 09:03:56;;;;;;;;;;;;;;;;;;5033277;28;19917;-48
2022/04/02 09:06:22;;;;;;;;;;;;;;;;;;5033502;28;20349;-48
2022/04/02 09:08:48;;;;;;;;;;;;;;;;;;5033459;28;19956;-48
2022/04/02 09:11:15;;;;;;;;;;;;;;;;;;5033381;28;19912;-47
2022/04/02 09:13:41;;;;;;;;;;;;;;;;;;5033588;28;19983;-50
2022/04/02 09:16:07;;;;;;;;;;;;;;;;;;5033230;28;20364;-48
2022/04/02 09:18:33;;;;;;;;;;;;;;;;;;5033383;28;19905;-48
2022/04/02 09:20:59;;;;;;;;;;;;;;;;;;5033546;28;19928;-49
2022/04/02 09:23:25;;;;;;;;;;;;;;;;;;5033125;28;19912;-48
2022/04/02 09:25:51;;;;;;;;;;;;;;;;;;5033193;28;20340;-55
2022/04/02 09:28:17;;;;;;;;;;;;;;;;;;5033222;28;20003;-48
2022/04/02 09:30:43;;;;;;;;;;;;;;;;;;5033062;28;19948;-49
2022/04/02 09:33:09;;;;;;;;;;;;;;;;;;5033027;28;20286;-47
2022/04/02 09:35:36;;;;;;;;;;;;;;;;;;5033123;28;19906;-46
2022/04/02 09:38:02;;;;;;;;;;;;;;;;;;5032820;28;19916;-47
2022/04/02 09:40:28;;;;;;;;;;;;;;;;;;5032687;28;19905;-47
2022/04/02 09:42:54;;;;;;;;;;;;;;;;;;5032661;28;19951;-47
2022/04/02 09:45:20;;;;;;;;;;;;;;;;;;5032664;28;20322;-47
2022/04/02 09:47:46;;;;;;;;;;;;;;;;;;5032655;28;19913;-49
2022/04/02 09:50:12;;;;;;;;;;;;;;;;;;5032546;28;19916;-49
2022/04/02 09:52:38;;;;;;;;;;;;;;;;;;5032406;28;20276;-48
2022/04/02 09:55:04;;;;;;;;;;;;;;;;;;5032808;28;19905;-49
2022/04/02 09:57:30;;;;;;;;;;;;;;;;;;5032526;28;20395;-49
2022/04/02 09:59:56;;;;;;;;;;;;;;;;;;5032376;28;19905;-49
2022/04/02 10:02:22;;;;;;;;;;;;;;;;;;5032307;28;20343;-49
2022/04/02 10:04:48;;;;;;;;;;;;;;;;;;5032209;28;19924;-51
2022/04/02 10:07:14;;;;;;;;;;;;;;;;;;5033076;28;19905;-49
2022/04/02 10:09:40;;;;;;;;;;;;;;;;;;5038640;28;19909;-51
2022/04/02 10:12:05;;;;;;;;;;;;;;;;;;5038819;28;19917;-49
2022/04/02 10:14:33;;;;;;;;;;;;;;;;;;5038927;28;20084;-48
2022/04/02 10:16:59;;;;;;;;;;;;;;;;;;5038870;28;20244;-48
2022/04/02 10:19:25;;;;;;;;;;;;;;;;;;5038876;28;19905;-49
2022/04/02 10:21:51;;;;;;;;;;;;;;;;;;5038863;28;19905;-48
2022/04/02 10:24:17;;;;;;;;;;;;;;;;;;5038937;28;19967;-46
2022/04/02 10:26:43;;;;;;;;;;;;;;;;;;5039032;28;19905;-47
2022/04/02 10:29:08;;;;;;;;;;;;;;;;;;5038882;28;19909;-46
2022/04/02 10:31:35;;;;;;;;;;;;;;;;;;5038854;28;19905;-46
2022/04/02 10:34:01;;;;;;;;;;;;;;;;;;5038915;28;19912;-47
2022/04/02 10:36:27;;;;;;;;;;;;;;;;;;5038893;28;19905;-46
2022/04/02 10:38:53;;;;;;;;;;;;;;;;;;5038841;28;20003;-46
2022/04/02 10:41:19;;;;;;;;;;;;;;;;;;5039035;28;20253;-46
2022/04/02 10:43:44;;;;;;;;;;;;;;;;;;5038835;28;19911;-46
2022/04/02 10:46:11;;;;;;;;;;;;;;;;;;5039004;28;19905;-46
2022/04/02 10:48:37;;;;;;;;;;;;;;;;;;5039084;28;19905;-47
2022/04/02 10:51:03;;;;;;;;;;;;;;;;;;5039009;28;19959;-46
2022/04/02 10:53:28;;;;;;;;;;;;;;;;;;5038650;28;19913;-47
2022/04/02 10:55:58;;;;;;;;;;;;;;;;;;5038703;28;19934;-47
2022/04/02 10:58:24;;;;;;;;;;;;;;;;;;5039008;28;19908;-47
2022/04/02 11:00:50;;;;;;;;;;;;;;;;;;5038744;28;19905;-49
2022/04/02 11:03:16;;;;;;;;;;;;;;;;;;5038426;28;20360;-47
2022/04/02 11:05:42;;;;;;;;;;;;;;;;;;5038662;28;19916;-49
2022/04/02 11:08:08;;;;;;;;;;;;;;;;;;5038861;28;19912;-49
2022/04/02 11:10:34;;;;;;;;;;;;;;;;;;5038881;28;19991;-47
2022/04/02 11:13:00;;;;;;;;;;;;;;;;;;5038421;28;19913;-48
2022/04/02 11:15:31;;;;;;;;;;;;;;;;;;5038816;28;20249;-48
2022/04/02 11:17:58;;;;;;;;;;;;;;;;;;5039122;28;20240;-48
2022/04/02 11:20:24;;;;;;;;;;;;;;;;;;5036084;28;19912;-48
2022/04/02 11:22:49;;;;;;;;;;;;;;;;;;5035432;28;19909;-48
2022/04/02 11:25:15;;;;;;;;;;;;;;;;;;5035289;28;20351;-49
2022/04/02 11:27:41;;;;;;;;;;;;;;;;;;5035543;28;20359;-49
2022/04/02 11:30:07;;;;;;;;;;;;;;;;;;5035183;28;19952;-49
2022/04/02 11:32:33;;;;;;;;;;;;;;;;;;5035386;28;19959;-48
2022/04/02 11:34:59;;;;;;;;;;;;;;;;;;5035088;28;19975;-48
2022/04/02 11:37:25;;;;;;;;;;;;;;;;;;5035158;28;19912;-47
2022/04/02 11:39:51;;;;;;;;;;;;;;;;;;5035422;28;19948;-48
2022/04/02 11:42:17;;;;;;;;;;;;;;;;;;5034934;28;19981;-46
2022/04/02 11:44:43;;;;;;;;;;;;;;;;;;5034992;28;19928;-46
2022/04/02 11:47:09;;;;;;;;;;;;;;;;;;5034880;28;19905;-46
2022/04/02 11:49:39;;;;;;;;;;;;;;;;;;5035115;28;19905;-48
2022/04/02 11:52:05;;;;;;;;;;;;;;;;;;5034708;28;19909;-46
2022/04/02 11:54:31;;;;;;;;;;;;;;;;;;5035128;28;19912;-47
2022/04/02 11:56:57;;;;;;;;;;;;;;;;;;5034845;28;19905;-47
2022/04/02 11:59:23;;;;;;;;;;;;;;;;;;5035083;28;19924;-47
2022/04/02 12:01:50;;;;;;;;;;;;;;;;;;5034788;28;19987;-48
2022/04/02 12:04:15;;;;;;;;;;;;;;;;;;5034732;28;19917;-49
2022/04/02 12:06:41;;;;;;;;;;;;;;;;;;5034861;28;19912;-48
2022/04/02 12:09:07;;;;;;;;;;;;;;;;;;5034536;28;19905;-48
2022/04/02 12:11:33;;;;;;;;;;;;;;;;;;5034394;28;19959;-48
2022/04/02 12:14:02;;;;;;;;;;;;;;;;;;5034670;28;20299;-48
2022/04/02 12:16:29;;;;;;;;;;;;;;;;;;5034414;28;19905;-48
2022/04/02 12:18:56;;;;;;;;;;;;;;;;;;5034442;28;19905;-48
2022/04/02 12:21:22;;;;;;;;;;;;;;;;;;5034359;28;19932;-48
2022/04/02 12:23:47;;;;;;;;;;;;;;;;;;5034338;28;19905;-47
2022/04/02 12:26:13;;;;;;;;;;;;;;;;;;5034593;28;19950;-49
2022/04/02 12:28:39;;;;;;;;;;;;;;;;;;5034474;28;19931;-48
2022/04/02 12:31:05;;;;;;;;;;;;;;;;;;5033689;28;19990;-48
2022/04/02 12:33:31;;;;;;;;;;;;;;;;;;5034139;28;20018;-49
2022/04/02 12:35:57;;;;;;;;;;;;;;;;;;5034487;28;19909;-47
2022/04/02 12:38:23;;;;;;;;;;;;;;;;;;5034242;28;19996;-48
2022/04/02 12:40:49;;;;;;;;;;;;;;;;;;5034575;28;20003;-47
2022/04/02 12:43:20;;;;;;;;;;;;;;;;;;5033968;28;20035;-48
2022/04/02 12:45:45;;;;;;;;;;;;;;;;;;5034176;28;19909;-48
2022/04/02 12:48:17;;;;;;;;;;;;;;;;;;5033866;28;19950;-50
2022/04/02 12:50:43;;;;;;;;;;;;;;;;;;5040570;28;19952;-48
2022/04/02 12:53:09;;;;;;;;;;;;;;;;;;5033762;28;19982;-48
2022/04/02 12:55:35;;;;;;;;;;;;;;;;;;5033643;28;19905;-46
2022/04/02 12:58:01;;;;;;;;;;;;;;;;;;5033715;28;20061;-49
2022/04/02 13:00:27;;;;;;;;;;;;;;;;;;5033624;28;20371;-47
2022/04/02 13:02:53;;;;;;;;;;;;;;;;;;5033321;28;19962;-48
2022/04/02 13:05:20;;;;;;;;;;;;;;;;;;5033823;28;19905;-48
2022/04/02 13:07:46;;;;;;;;;;;;;;;;;;5033569;28;20461;-48
2022/04/02 13:10:13;;;;;;;;;;;;;;;;;;5033849;28;19959;-49
2022/04/02 13:12:42;;;;;;;;;;;;;;;;;;5034005;28;19913;-48
2022/04/02 13:15:08;;;;;;;;;;;;;;;;;;5033440;28;19905;-49
2022/04/02 13:17:34;;;;;;;;;;;;;;;;;;5033319;28;20048;-48
2022/04/02 13:22:45;;;;;;;;;;;;;;;;;;5033221;28;19912;-48
2022/04/02 13:25:11;;;;;;;;;;;;;;;;;;5033191;28;20279;-47
2022/04/02 13:27:36;;;;;;;;;;;;;;;;;;5033052;28;19996;-47
2022/04/02 13:30:02;;;;;;;;;;;;;;;;;;5033130;28;19975;-50
2022/04/02 13:32:28;;;;;;;;;;;;;;;;;;5033274;28;19913;-48
2022/04/02 13:34:54;;;;;;;;;;;;;;;;;;5032970;28;20411;-48
2022/04/02 13:37:20;;;;;;;;;;;;;;;;;;5033004;28;19912;-50
2022/04/02 13:39:46;;;;;;;;;;;;;;;;;;5032926;28;20316;-49
2022/04/02 13:42:12;;;;;;;;;;;;;;;;;;5032346;28;19968;-49
2022/04/02 13:44:38;;;;;;;;;;;;;;;;;;5032650;28;20313;-48
2022/04/02 13:47:03;;;;;;;;;;;;;;;;;;5032863;28;19944;-48
2022/04/02 13:49:29;;;;;;;;;;;;;;;;;;5033196;28;19959;-46
2022/04/02 13:51:56;;;;;;;;;;;;;;;;;;5033264;28;20391;-48
2022/04/02 13:54:23;;;;;;;;;;;;;;;;;;5032797;28;19941;-48
2022/04/02 13:56:49;;;;;;;;;;;;;;;;;;5033039;28;19909;-48
2022/04/02 13:59:14;;;;;;;;;;;;;;;;;;5032670;28;19928;-49
2022/04/02 14:01:40;;;;;;;;;;;;;;;;;;5032560;28;20013;-48
2022/04/02 14:04:06;;;;;;;;;;;;;;;;;;5032476;28;19917;-48
2022/04/02 14:06:32;;;;;;;;;;;;;;;;;;5032690;28;19916;-48
2022/04/02 14:08:58;;;;;;;;;;;;;;;;;;5032550;28;19905;-46
2022/04/02 14:11:24;;;;;;;;;;;;;;;;;;5032596;28;20261;-47
2022/04/02 14:13:50;;;;;;;;;;;;;;;;;;5032369;28;20277;-50
2022/04/02 14:16:15;;;;;;;;;;;;;;;;;;5032523;28;19912;-48
2022/04/02 14:18:43;;;;;;;;;;;;;;;;;;5032741;28;19992;-49
2022/04/02 14:21:08;;;;;;;;;;;;;;;;;;5032491;28;19958;-49
2022/04/02 14:23:34;;;;;;;;;;;;;;;;;;5032490;28;19905;-47
2022/04/02 14:26:00;;;;;;;;;;;;;;;;;;5032649;28;19912;-47
2022/04/02 14:28:26;;;;;;;;;;;;;;;;;;5032541;28;20393;-48
2022/04/02 14:30:52;;;;;;;;;;;;;;;;;;5032289;28;19917;-50
2022/04/02 14:33:18;;;;;;;;;;;;;;;;;;5032400;28;19913;-50
2022/04/02 14:35:44;;;;;;;;;;;;;;;;;;5032411;28;19905;-50
2022/04/02 14:38:10;;;;;;;;;;;;;;;;;;5032303;28;20332;-50
2022/04/02 14:40:36;;;;;;;;;;;;;;;;;;5032320;28;19912;-50
2022/04/02 14:43:02;;;;;;;;;;;;;;;;;;5032443;28;19940;-48
2022/04/02 14:45:28;;;;;;;;;;;;;;;;;;5032178;28;20429;-48
2022/04/02 14:47:54;;;;;;;;;;;;;;;;;;5032110;28;19948;-48
2022/04/02 14:50:19;;;;;;;;;;;;;;;;;;5032138;28;19952;-50
2022/04/02 14:52:45;;;;;;;;;;;;;;;;;;5032074;28;20359;-50
2022/04/02 14:55:11;;;;;;;;;;;;;;;;;;5034759;28;19905;-49
2022/04/02 14:57:37;;;;;;;;;;;;;;;;;;5035862;28;20367;-49
2022/04/02 15:00:03;;;;;;;;;;;;;;;;;;5035859;28;19905;-48
2022/04/02 15:02:32;;;;;;;;;;;;;;;;;;5035571;28;20071;-47
2022/04/02 15:04:59;;;;;;;;;;;;;;;;;;5035829;28;20307;-47
2022/04/02 15:07:25;;;;;;;;;;;;;;;;;;5035692;28;19912;-47
2022/04/02 15:09:51;;;;;;;;;;;;;;;;;;5035673;28;19905;-47
2022/04/02 15:12:17;;;;;;;;;;;;;;;;;;5035765;28;19959;-49
2022/04/02 15:14:43;;;;;;;;;;;;;;;;;;5035404;28;19905;-46
2022/04/02 15:17:09;;;;;;;;;;;;;;;;;;5035447;28;19911;-46
2022/04/02 15:19:35;;;;;;;;;;;;;;;;;;5035458;28;19992;-46
2022/04/02 15:22:00;;;;;;;;;;;;;;;;;;5035394;28;19905;-47
2022/04/02 15:24:27;;;;;;;;;;;;;;;;;;5035311;28;19975;-47
2022/04/02 15:26:53;;;;;;;;;;;;;;;;;;5035272;28;19937;-47
2022/04/02 15:29:19;;;;;;;;;;;;;;;;;;5035270;28;19952;-47
2022/04/02 15:31:44;;;;;;;;;;;;;;;;;;5035363;28;19916;-47
2022/04/02 15:34:10;;;;;;;;;;;;;;;;;;5035099;28;20422;-48
2022/04/02 15:36:36;;;;;;;;;;;;;;;;;;5035064;28;19905;-49
2022/04/02 15:39:02;;;;;;;;;;;;;;;;;;5034926;28;19928;-47
2022/04/02 15:41:28;;;;;;;;;;;;;;;;;;5035043;28;19911;-48
2022/04/02 15:43:54;;;;;;;;;;;;;;;;;;5034792;28;19967;-47
2022/04/02 15:46:20;;;;;;;;;;;;;;;;;;5034735;28;19905;-47
2022/04/02 15:48:45;;;;;;;;;;;;;;;;;;5034774;28;19905;-48
2022/04/02 15:51:11;;;;;;;;;;;;;;;;;;5034746;28;20000;-47
2022/04/02 15:53:37;;;;;;;;;;;;;;;;;;5034599;28;19913;-47
2022/04/02 15:56:03;;;;;;;;;;;;;;;;;;5034935;28;19905;-49
2022/04/02 15:58:29;;;;;;;;;;;;;;;;;;5035029;28;20339;-47
2022/04/02 16:00:55;;;;;;;;;;;;;;;;;;5034484;28;19905;-47
2022/04/02 16:03:21;;;;;;;;;;;;;;;;;;5034307;28;20248;-46
2022/04/02 16:05:47;;;;;;;;;;;;;;;;;;5033510;28;20329;-47
2022/04/02 16:08:20;;;;;;;;;;;;;;;;;;5034388;28;19912;-47
2022/04/02 16:10:46;;;;;;;;;;;;;;;;;;5034681;28;19908;-47
2022/04/02 16:13:12;;;;;;;;;;;;;;;;;;5034453;28;20390;-47
2022/04/02 16:15:38;;;;;;;;;;;;;;;;;;5034284;28;19905;-53
2022/04/02 16:18:04;;;;;;;;;;;;;;;;;;5032858;28;19912;-51
2022/04/02 16:20:30;;;;;;;;;;;;;;;;;;5034055;28;19912;-54
2022/04/02 16:22:55;;;;;;;;;;;;;;;;;;5034137;28;19905;-51
2022/04/02 16:25:21;;;;;;;;;;;;;;;;;;5033968;28;19912;-51
2022/04/02 16:27:48;;;;;;;;;;;;;;;;;;5034361;28;19905;-53
2022/04/02 16:30:13;;;;;;;;;;;;;;;;;;5034021;28;20382;-50
2022/04/02 16:32:39;;;;;;;;;;;;;;;;;;5033775;28;19913;-50
2022/04/02 16:35:05;;;;;;;;;;;;;;;;;;5033945;28;19967;-49
2022/04/02 16:37:33;;;;;;;;;;;;;;;;;;5033852;28;19905;-49
2022/04/02 16:40:00;;;;;;;;;;;;;;;;;;5033965;28;19905;-49
2022/04/02 16:42:25;;;;;;;;;;;;;;;;;;5033864;28;19905;-50